createdAt,value
2023-02-22T00:07:48.807Z,43.82274247491639
2023-02-22T00:16:59.856Z,42.62876254180602
2023-02-22T00:23:49.440Z,42.79933110367893
2023-02-22T00:30:40.464Z,43.812709030100336
2023-02-22T00:37:31.438Z,44.5685618729097
2023-02-22T00:44:28.708Z,43.364548494983275
2023-02-22T00:56:05.686Z,40.83946488294314
2023-02-22T01:04:10.385Z,40.49498327759197
2023-02-22T01:11:34.915Z,37.94983277591973
2023-02-22T01:25:29.682Z,37.68561872909699
2023-02-22T01:32:55.110Z,37.40133779264214
2023-02-22T01:50:37.725Z,36.448160535117054
2023-02-22T02:05:17.951Z,35.65886287625418
2023-02-22T02:19:17.707Z,37.76923076923077
2023-02-22T02:26:21.412Z,37.27090301003344
2023-02-22T02:37:32.024Z,36.99665551839465
2023-02-22T02:44:40.893Z,36.06688963210702
2023-02-22T03:01:14.421Z,35.752508361204015
2023-02-22T03:09:25.491Z,35.7324414715719
2023-02-22T03:16:17.775Z,35.9933110367893
2023-02-22T03:23:15.055Z,36.187290969899664
2023-02-22T03:30:02.278Z,38.19063545150502
2023-02-22T03:51:17.036Z,40.23411371237458
2023-02-22T03:58:22.829Z,45.89966555183946
2023-02-22T04:05:21.210Z,49.78260869565217
2023-02-22T04:12:05.313Z,51.096989966555185
2023-02-22T04:18:57.476Z,52.69230769230769
2023-02-22T04:25:54.129Z,51.30769230769231
2023-02-22T04:32:49.270Z,49.5685618729097
2023-02-22T04:39:38.033Z,48.68227424749164
2023-02-22T04:46:38.096Z,48.59866220735786
2023-02-22T04:55:12.730Z,47.10033444816054
2023-02-22T05:02:11.318Z,45.21739130434783
2023-02-22T05:13:04.238Z,44.23076923076923
2023-02-22T05:19:57.274Z,42.30100334448161
2023-02-22T05:26:56.182Z,41.32775919732441
2023-02-22T05:33:38.717Z,40.54515050167224
2023-02-22T05:40:41.042Z,39.47826086956522
2023-02-22T05:47:31.412Z,38.93311036789298
2023-02-22T05:54:21.200Z,36.668896321070235
2023-02-22T06:04:55.228Z,38.635451505016725
2023-02-22T06:11:36.915Z,38.17056856187291
2023-02-22T06:18:19.414Z,38.71571906354515
2023-02-22T06:34:55.199Z,41.50501672240803
2023-02-22T06:41:40.844Z,42.16722408026756
2023-02-22T06:48:31.735Z,40.67892976588629
2023-02-22T06:55:41.461Z,41.73913043478261
2023-02-22T07:02:41.157Z,44.56521739130435
2023-02-22T07:09:41.501Z,39.72240802675585
2023-02-22T07:21:25.017Z,40.27759197324415
2023-02-22T07:28:03.394Z,39.76254180602007
2023-02-22T07:34:46.501Z,39.1438127090301
2023-02-22T07:50:15.211Z,34.72909698996656
2023-02-22T07:56:56.409Z,31.702341137123746
2023-02-22T08:11:19.126Z,32.04013377926422
2023-02-22T08:23:48.996Z,31.214046822742475
2023-02-22T08:33:21.888Z,32.812709030100336
2023-02-22T08:40:14.654Z,33.97658862876254
2023-02-22T08:52:00.454Z,31.638795986622075
2023-02-22T08:58:52.538Z,31.37123745819398
2023-02-22T09:07:34.939Z,31.505016722408026
2023-02-22T09:14:36.336Z,31.39799331103679
2023-02-22T09:21:17.743Z,31.51839464882943
2023-02-22T09:36:59.534Z,30.361204013377925
2023-02-22T09:45:37.035Z,30.11705685618729
2023-02-22T09:52:20.974Z,31.806020066889634
2023-02-22T09:59:03.018Z,30.678929765886288
2023-02-22T10:08:29.615Z,32.91638795986622
2023-02-22T10:15:13.891Z,33.07357859531773
2023-02-22T10:21:53.825Z,30.849498327759196
2023-02-22T10:32:22.317Z,31.337792642140467
2023-02-22T10:39:07.246Z,31.441471571906355
2023-02-22T10:45:48.414Z,32.30100334448161
2023-02-22T10:52:30.096Z,30.859531772575252
2023-02-22T10:59:08.112Z,32.4180602006689
2023-02-22T11:05:47.058Z,29.240802675585286
2023-02-22T11:17:20.852Z,32.42809364548495
2023-02-22T11:24:03.689Z,31.448160535117058
2023-02-22T11:30:47.803Z,30.82608695652174
2023-02-22T11:37:32.362Z,31.929765886287626
2023-02-22T11:45:01.721Z,32.13377926421405
2023-02-22T11:51:43.183Z,33.92307692307692
2023-02-22T11:58:26.805Z,32.43478260869565
2023-02-22T12:05:06.345Z,34.20066889632107
2023-02-22T12:11:47.772Z,32.080267558528426
2023-02-22T12:18:26.898Z,32.59531772575251
2023-02-22T12:25:10.135Z,32.92642140468227
2023-02-22T12:31:54.773Z,32.919732441471574
2023-02-22T12:38:50.557Z,33.38461538461539
2023-02-22T12:55:10.458Z,33.38461538461539
2023-02-22T13:07:18.373Z,33.046822742474916
2023-02-22T13:15:25.388Z,33.24414715719063
2023-02-22T13:27:26.073Z,32.17391304347826
2023-02-22T13:42:50.167Z,32.013377926421406
2023-02-22T13:53:15.109Z,33.51170568561873
2023-02-22T14:00:05.981Z,32.27090301003344
2023-02-22T14:07:09.045Z,31.2809364548495
2023-02-22T14:14:14.569Z,31.862876254180602
2023-02-22T14:21:35.547Z,31.91304347826087
2023-02-22T14:49:27.746Z,31.705685618729095
2023-02-22T15:04:21.775Z,33.26086956521739
2023-02-22T15:11:04.519Z,31.82943143812709
2023-02-22T15:17:48.837Z,31.909698996655518
2023-02-22T15:24:39.685Z,33.37123745819398
2023-02-22T15:31:40.045Z,32.52173913043478
2023-02-22T15:38:31.502Z,30.792642140468228
2023-02-22T15:45:21.835Z,33.147157190635454
2023-02-22T15:52:21.444Z,31.668896321070235
2023-02-22T15:59:19.650Z,31.638795986622075
2023-02-22T16:06:12.638Z,30.401337792642142
2023-02-22T16:21:11.902Z,32.06020066889632
2023-02-22T16:28:05.573Z,32.54849498327759
2023-02-22T16:37:19.612Z,33.836120401337794
2023-02-22T16:44:00.595Z,32.97324414715719
2023-02-22T16:52:39.149Z,32.22742474916388
2023-02-22T17:08:26.750Z,36.4314381270903
2023-02-22T17:15:07.261Z,34.725752508361204
2023-02-22T17:21:47.669Z,36.34448160535117
2023-02-22T17:28:30.752Z,35.46153846153846
2023-02-22T17:39:26.509Z,36.76588628762542
2023-02-22T17:47:45.663Z,36.88628762541806
2023-02-22T17:54:24.136Z,40.31103678929766
2023-02-22T18:01:00.119Z,47.69230769230769
2023-02-22T18:07:42.573Z,49.28428093645485
2023-02-22T18:17:01.502Z,52.903010033444815
2023-02-22T18:27:11.781Z,55.93979933110368
2023-02-22T18:33:49.897Z,70.94983277591973
2023-02-22T18:40:25.702Z,70.03344481605352
2023-02-22T18:46:58.368Z,64.07357859531773
2023-02-22T18:53:31.391Z,57.551839464882946
2023-02-22T19:00:04.682Z,52.0066889632107
2023-02-22T19:06:39.760Z,50.147157190635454
2023-02-22T19:23:38.856Z,48.2876254180602
2023-02-22T19:31:14.501Z,50.45150501672241
2023-02-22T19:37:49.020Z,48.64548494983278
2023-02-22T19:48:58.867Z,46.03344481605351
2023-02-22T20:01:37.901Z,43.20401337792642
2023-02-22T20:13:02.983Z,39.99665551839465
2023-02-22T20:20:53.841Z,37.04347826086956
2023-02-22T20:27:34.004Z,34.896321070234116
2023-02-22T20:43:36.951Z,36.86622073578595
2023-02-22T20:50:16.251Z,36.34782608695652
2023-02-22T21:07:01.127Z,37.25752508361204
2023-02-22T21:13:35.661Z,36.60535117056856
2023-02-22T21:30:04.351Z,36.575250836120404
2023-02-22T21:36:48.054Z,36.561872909699
2023-02-22T21:43:53.462Z,35.11705685618729
2023-02-22T21:56:17.144Z,36.12040133779264
2023-02-22T22:05:40.800Z,34.88294314381271
2023-02-22T22:12:54.274Z,36.48494983277592
2023-02-22T22:25:49.395Z,36.35117056856188
2023-02-22T22:43:45.208Z,38.47826086956522
2023-02-22T22:51:53.269Z,39.80602006688963
2023-02-22T22:59:38.729Z,39.23076923076923
2023-02-22T23:17:42.661Z,41.31438127090301
2023-02-22T23:25:43.716Z,38.759197324414714
2023-02-22T23:33:43.547Z,37.66220735785953
2023-02-22T23:49:36.635Z,41.66555183946488
